Time;durP1;ratioP1;P1;durP2;ratioP2;P2;SDS_P1;SDS_P2;PMS_P1;PMS_P2;Temp;Humidity;BMP_temperature;BMP_pressure;BME280_temperature;BME280_humidity;BME280_pressure;Samples;Min_cycle;Max_cycle;Signal;HPM_P1;HPM_P2
2024/04/25 00:00:54;;;;;;;2.83;2.07;;;5.70;99.90;;;;;;5487070;25;20235;-52
2024/04/25 00:03:23;;;;;;;1.90;1.70;;;5.60;99.90;;;;;;5461528;26;20239;-54
2024/04/25 00:05:51;;;;;;;3.83;2.37;;;5.60;99.90;;;;;;5460091;26;20811;-52
2024/04/25 00:08:22;;;;;;;4.03;2.20;;;5.60;99.90;;;;;;5486199;26;20344;-50
2024/04/25 00:10:54;;;;;;;2.00;1.90;;;5.60;99.90;;;;;;5470445;26;21106;-54
2024/04/25 00:13:26;;;;;;;2.67;2.03;;;5.60;99.90;;;;;;5434059;26;20250;-50
2024/04/25 00:15:55;;;;;;;2.33;2.13;;;5.60;99.90;;;;;;5481449;26;21006;-54
2024/04/25 00:18:25;;;;;;;2.33;2.00;;;5.60;99.90;;;;;;5465806;26;20269;-52
2024/04/25 00:20:53;;;;;;;3.23;2.63;;;5.60;99.90;;;;;;5476460;26;20953;-55
2024/04/25 00:23:24;;;;;;;2.00;1.90;;;5.60;99.90;;;;;;5488927;26;20272;-52
2024/04/25 00:25:53;;;;;;;2.23;2.03;;;5.60;99.90;;;;;;5468597;26;20223;-53
2024/04/25 00:28:21;;;;;;;3.50;3.20;;;5.60;99.90;;;;;;5487467;26;20274;-49
2024/04/25 00:30:50;;;;;;;2.23;2.10;;;5.60;99.90;;;;;;5431845;26;20237;-55
2024/04/25 00:33:20;;;;;;;2.60;2.30;;;5.60;99.90;;;;;;5466566;26;20346;-49
2024/04/25 00:35:49;;;;;;;2.07;1.70;;;5.60;99.90;;;;;;5476451;26;20238;-54
2024/04/25 00:38:17;;;;;;;2.90;2.03;;;5.60;99.90;;;;;;5474460;26;20342;-52
2024/04/25 00:40:49;;;;;;;2.40;2.17;;;5.60;99.90;;;;;;5472502;26;20223;-56
2024/04/25 00:43:17;;;;;;;3.63;2.20;;;5.60;99.90;;;;;;5486705;26;20824;-50
2024/04/25 00:45:46;;;;;;;2.47;2.27;;;5.60;99.90;;;;;;5443276;26;20249;-56
2024/04/25 00:48:15;;;;;;;2.27;2.07;;;5.60;99.90;;;;;;5482491;25;21071;-52
2024/04/25 00:50:42;;;;;;;2.90;1.83;;;5.60;99.90;;;;;;5445508;26;20230;-56
2024/04/25 00:53:10;;;;;;;2.50;2.30;;;5.60;99.90;;;;;;5477989;26;20234;-54
2024/04/25 00:55:39;;;;;;;2.13;2.00;;;5.60;99.90;;;;;;5484592;26;20253;-55
2024/04/25 00:58:12;;;;;;;3.40;2.17;;;5.60;99.90;;;;;;5484657;26;20414;-52
2024/04/25 01:00:44;;;;;;;4.10;2.33;;;5.60;99.90;;;;;;5442632;26;20247;-56
2024/04/25 01:03:15;;;;;;;2.27;2.10;;;5.60;99.90;;;;;;5485843;26;20238;-52
2024/04/25 01:05:44;;;;;;;2.27;2.10;;;5.60;99.90;;;;;;5440698;26;20290;-53
2024/04/25 01:08:14;;;;;;;2.50;2.00;;;5.60;99.90;;;;;;5459015;26;20329;-52
2024/04/25 01:10:43;;;;;;;2.60;2.40;;;5.50;99.90;;;;;;5485590;26;20231;-56
2024/04/25 01:13:14;;;;;;;2.80;2.60;;;5.50;99.90;;;;;;5474157;26;20239;-50
2024/04/25 01:15:43;;;;;;;2.20;2.03;;;5.50;99.90;;;;;;5444935;26;20250;-54
2024/04/25 01:18:14;;;;;;;2.80;2.50;;;5.50;99.90;;;;;;5478577;26;20268;-54
2024/04/25 01:20:42;;;;;;;2.57;2.33;;;5.50;99.90;;;;;;5451260;26;20838;-54
2024/04/25 01:23:14;;;;;;;2.63;2.43;;;5.50;99.90;;;;;;5463366;26;20844;-53
2024/04/25 01:25:46;;;;;;;2.30;2.10;;;5.50;99.90;;;;;;5485766;26;20688;-50
2024/04/25 01:28:16;;;;;;;2.53;2.07;;;5.50;99.90;;;;;;5486320;26;20624;-49
2024/04/25 01:30:47;;;;;;;3.07;2.30;;;5.50;99.90;;;;;;5480172;26;20281;-52
2024/04/25 01:33:17;;;;;;;2.90;2.43;;;5.50;99.90;;;;;;5423805;26;20246;-55
2024/04/25 01:35:47;;;;;;;2.30;2.10;;;5.50;99.90;;;;;;5458898;26;20377;-54
2024/04/25 01:38:16;;;;;;;2.73;2.53;;;5.50;99.90;;;;;;5476483;26;20764;-52
2024/04/25 01:40:47;;;;;;;3.43;2.27;;;5.50;99.90;;;;;;5481527;26;20264;-48
2024/04/25 01:43:16;;;;;;;2.90;2.30;;;5.50;99.90;;;;;;5483486;26;21012;-55
2024/04/25 01:45:45;;;;;;;2.53;2.30;;;5.50;99.90;;;;;;5482752;26;21099;-52
2024/04/25 01:48:13;;;;;;;2.63;2.43;;;5.50;99.90;;;;;;5434068;26;20253;-51
2024/04/25 01:50:42;;;;;;;3.27;2.77;;;5.50;99.90;;;;;;5475031;26;20223;-52
2024/04/25 01:53:10;;;;;;;3.43;2.73;;;5.50;99.90;;;;;;5463360;26;20234;-53
2024/04/25 01:55:39;;;;;;;3.30;2.50;;;5.50;99.90;;;;;;5485933;26;20327;-55
2024/04/25 01:58:10;;;;;;;2.50;2.30;;;5.50;99.90;;;;;;5485236;26;20933;-50
2024/04/25 02:00:39;;;;;;;4.83;2.63;;;5.50;99.90;;;;;;5476726;26;20222;-55
2024/04/25 02:03:07;;;;;;;3.07;2.50;;;5.50;99.90;;;;;;5428169;26;20243;-52
2024/04/25 02:05:36;;;;;;;2.80;2.60;;;5.50;99.90;;;;;;5479982;26;20276;-56
2024/04/25 02:08:04;;;;;;;3.20;2.80;;;5.40;99.90;;;;;;5461075;26;20327;-53
2024/04/25 02:10:33;;;;;;;2.90;2.53;;;5.40;99.90;;;;;;5469132;26;20280;-54
2024/04/25 02:13:01;;;;;;;2.50;2.30;;;5.40;99.90;;;;;;5482637;26;20305;-50
2024/04/25 02:15:32;;;;;;;5.23;2.90;;;5.40;99.90;;;;;;5477526;26;20265;-56
2024/04/25 02:18:01;;;;;;;3.03;2.70;;;5.40;99.90;;;;;;5474978;26;20246;-53
2024/04/25 02:26:04;;;;;;;2.90;2.70;;;5.50;99.90;;;;;;5464331;26;20709;-51
2024/04/25 02:28:32;;;;;;;3.80;2.87;;;5.50;99.90;;;;;;5475140;26;20226;-57
2024/04/25 02:31:04;;;;;;;3.00;2.77;;;5.40;99.90;;;;;;5470337;26;20841;-54
2024/04/25 02:33:32;;;;;;;3.53;3.00;;;5.40;99.90;;;;;;5483786;26;20238;-55
2024/04/25 02:36:00;;;;;;;4.83;2.77;;;5.50;99.90;;;;;;5447921;26;21099;-51
2024/04/25 02:38:29;;;;;;;3.07;2.87;;;5.50;99.90;;;;;;5475253;26;20325;-54
2024/04/25 02:40:58;;;;;;;4.70;3.10;;;5.40;99.90;;;;;;5462602;26;20327;-49
2024/04/25 02:43:26;;;;;;;3.63;2.83;;;5.40;99.90;;;;;;5472450;26;20230;-55
2024/04/25 02:45:53;;;;;;;3.10;2.63;;;5.50;99.90;;;;;;5474516;26;20231;-51
2024/04/25 02:48:24;;;;;;;2.80;2.60;;;5.50;99.90;;;;;;5486168;26;20717;-55
2024/04/25 02:50:50;;;;;;;4.67;3.07;;;5.50;99.90;;;;;;5450804;26;21021;-50
2024/04/25 02:53:20;;;;;;;6.63;2.90;;;5.40;99.90;;;;;;5497837;26;20737;-50
2024/04/25 02:55:45;;;;;;;3.37;3.13;;;5.40;99.90;;;;;;5446562;26;20243;-51
2024/04/25 02:58:14;;;;;;;3.80;2.97;;;5.40;99.90;;;;;;5475764;26;20281;-52
2024/04/25 03:00:40;;;;;;;2.63;2.43;;;5.40;99.90;;;;;;5478650;26;20281;-50
2024/04/25 03:03:08;;;;;;;3.23;3.00;;;5.30;99.90;;;;;;5489555;26;20238;-51
2024/04/25 03:05:40;;;;;;;3.67;3.27;;;5.30;99.90;;;;;;5483746;26;20356;-52
2024/04/25 03:08:09;;;;;;;2.90;2.70;;;5.30;99.90;;;;;;5436462;26;20246;-50
2024/04/25 03:10:35;;;;;;;3.00;2.63;;;5.30;99.90;;;;;;5442082;26;20242;-56
2024/04/25 03:13:03;;;;;;;3.10;2.80;;;5.30;99.90;;;;;;5478147;26;20230;-54
2024/04/25 03:15:29;;;;;;;3.10;2.80;;;5.30;99.90;;;;;;5486167;26;20585;-54
2024/04/25 03:17:58;;;;;;;3.70;2.73;;;5.30;99.90;;;;;;5490434;26;20280;-52
2024/04/25 03:20:24;;;;;;;6.40;2.93;;;5.30;99.90;;;;;;5485729;26;20234;-55
2024/04/25 03:22:55;;;;;;;3.30;3.00;;;5.30;99.90;;;;;;5442707;26;20288;-50
2024/04/25 03:25:21;;;;;;;3.40;3.10;;;5.30;99.90;;;;;;5468921;26;20299;-54
2024/04/25 03:27:49;;;;;;;3.60;3.07;;;5.30;99.90;;;;;;5461308;26;21126;-49
2024/04/25 03:30:16;;;;;;;3.47;3.17;;;5.30;99.90;;;;;;5469035;25;20284;-52
2024/04/25 03:32:45;;;;;;;3.30;3.07;;;5.30;99.90;;;;;;5482994;25;20235;-54
2024/04/25 03:35:11;;;;;;;3.43;3.13;;;5.30;99.90;;;;;;5471720;26;20269;-53
2024/04/25 03:37:39;;;;;;;6.03;3.90;;;5.30;99.90;;;;;;5484754;26;20234;-53
2024/04/25 03:40:11;;;;;;;3.90;3.50;;;5.30;99.90;;;;;;5442166;26;20245;-55
2024/04/25 03:42:40;;;;;;;3.97;3.57;;;5.30;99.90;;;;;;5478053;26;20743;-50
2024/04/25 03:45:10;;;;;;;6.40;3.77;;;5.20;99.90;;;;;;5481353;25;20579;-55
2024/04/25 03:47:38;;;;;;;3.50;3.20;;;5.20;99.90;;;;;;5486623;26;20813;-53
2024/04/25 03:50:07;;;;;;;3.60;3.30;;;5.10;99.90;;;;;;5489538;26;20663;-56
2024/04/25 03:52:36;;;;;;;5.57;4.10;;;5.20;99.90;;;;;;5461615;26;20399;-53
2024/04/25 03:55:05;;;;;;;3.67;3.33;;;5.10;99.90;;;;;;5427945;25;20247;-53
2024/04/25 03:57:36;;;;;;;4.43;3.67;;;5.20;99.90;;;;;;5478777;26;20751;-53
2024/04/25 04:00:02;;;;;;;3.80;3.50;;;5.20;99.90;;;;;;5485150;26;20231;-55
2024/04/25 04:02:33;;;;;;;4.50;4.10;;;5.20;99.90;;;;;;5490322;26;20278;-54
2024/04/25 04:05:01;;;;;;;4.30;3.90;;;5.20;99.90;;;;;;5485436;26;20891;-56
2024/04/25 04:07:31;;;;;;;4.60;3.40;;;5.20;99.90;;;;;;5469139;25;20715;-51
2024/04/25 04:09:59;;;;;;;4.30;3.63;;;5.20;99.90;;;;;;5446265;26;20243;-55
2024/04/25 04:12:28;;;;;;;6.90;3.93;;;5.20;99.90;;;;;;5462135;26;20450;-50
2024/04/25 04:14:59;;;;;;;4.03;3.73;;;5.20;99.90;;;;;;5491207;26;20774;-55
2024/04/25 04:17:29;;;;;;;4.37;4.00;;;5.10;99.90;;;;;;5467920;26;20243;-55
2024/04/25 04:19:59;;;;;;;4.03;3.63;;;5.00;99.90;;;;;;5479515;26;20231;-55
2024/04/25 04:22:27;;;;;;;4.33;3.93;;;4.90;99.90;;;;;;5462889;26;20234;-51
2024/04/25 04:24:56;;;;;;;5.90;4.20;;;5.00;99.90;;;;;;5464894;26;20688;-53
2024/04/25 04:27:24;;;;;;;6.97;4.80;;;4.90;99.90;;;;;;5458951;26;20262;-50
2024/04/25 04:29:53;;;;;;;5.57;4.40;;;4.90;99.90;;;;;;5461597;26;20231;-55
2024/04/25 04:32:25;;;;;;;9.77;4.40;;;4.90;99.90;;;;;;5481810;26;20274;-51
2024/04/25 04:34:53;;;;;;;4.83;4.43;;;4.90;99.90;;;;;;5467730;26;20345;-53
2024/04/25 04:37:22;;;;;;;5.17;4.40;;;4.90;99.90;;;;;;5464535;26;20226;-49
2024/04/25 04:39:51;;;;;;;6.87;4.50;;;4.90;99.90;;;;;;5466366;26;20793;-54
2024/04/25 04:42:19;;;;;;;4.70;4.30;;;4.90;99.90;;;;;;5438415;26;20237;-49
2024/04/25 04:44:48;;;;;;;5.73;4.87;;;4.80;99.90;;;;;;5472228;26;20269;-54
2024/04/25 04:47:16;;;;;;;6.37;4.90;;;4.80;99.90;;;;;;5489496;26;20968;-54
2024/04/25 04:49:47;;;;;;;5.93;4.80;;;4.80;99.90;;;;;;5470191;26;20222;-53
2024/04/25 04:52:18;;;;;;;7.40;4.90;;;4.80;99.90;;;;;;5480375;26;20245;-51
2024/04/25 04:54:47;;;;;;;5.20;4.80;;;4.80;99.90;;;;;;5452673;26;20355;-57
2024/04/25 04:57:15;;;;;;;6.50;4.70;;;4.90;99.90;;;;;;5434952;26;20297;-54
2024/04/25 04:59:44;;;;;;;5.53;4.60;;;4.90;99.90;;;;;;5469784;26;20231;-56
2024/04/25 05:02:12;;;;;;;4.23;3.83;;;5.00;99.90;;;;;;5465768;25;20226;-52
2024/04/25 05:04:41;;;;;;;6.67;4.50;;;5.00;99.90;;;;;;5476752;26;20273;-56
2024/04/25 05:07:12;;;;;;;5.20;4.57;;;5.00;99.90;;;;;;5483737;26;20426;-54
2024/04/25 05:09:40;;;;;;;5.23;4.47;;;5.00;99.90;;;;;;5458286;26;20600;-55
2024/04/25 05:12:09;;;;;;;5.73;4.60;;;4.90;99.90;;;;;;5443376;26;26577;-52
2024/04/25 05:14:37;;;;;;;5.37;4.57;;;4.90;99.90;;;;;;5487931;26;20646;-56
2024/04/25 05:17:03;;;;;;;5.43;4.30;;;4.90;99.90;;;;;;5444937;26;21684;-52
2024/04/25 05:19:32;;;;;;;5.57;4.70;;;5.00;99.90;;;;;;5469799;26;20741;-52
2024/04/25 05:22:01;;;;;;;5.10;4.53;;;5.00;99.90;;;;;;5466806;26;20246;-49
2024/04/25 05:24:32;;;;;;;6.00;5.40;;;5.00;99.90;;;;;;5468059;26;20277;-53
2024/04/25 05:27:00;;;;;;;7.70;6.90;;;5.00;99.90;;;;;;5460586;25;20314;-51
2024/04/25 05:29:29;;;;;;;10.63;6.93;;;5.00;99.90;;;;;;5442230;26;20284;-53
2024/04/25 05:31:57;;;;;;;8.47;7.70;;;5.10;99.90;;;;;;5452062;26;20330;-54
2024/04/25 05:34:26;;;;;;;9.37;8.27;;;5.10;99.90;;;;;;5461301;26;20768;-55
2024/04/25 05:36:54;;;;;;;11.27;9.37;;;5.10;99.90;;;;;;5477313;26;20226;-54
2024/04/25 05:39:24;;;;;;;12.93;10.10;;;5.10;99.90;;;;;;5459938;26;20284;-56
2024/04/25 05:41:55;;;;;;;12.10;9.87;;;5.20;99.90;;;;;;5461950;26;20269;-53
2024/04/25 05:44:24;;;;;;;13.57;10.77;;;5.10;99.90;;;;;;5423976;26;20250;-56
2024/04/25 05:46:54;;;;;;;14.03;11.23;;;5.10;99.90;;;;;;5465876;26;20243;-51
2024/04/25 05:49:23;;;;;;;12.00;9.97;;;5.20;99.90;;;;;;5477896;26;20290;-57
2024/04/25 05:51:51;;;;;;;13.07;10.90;;;5.20;99.90;;;;;;5461112;26;20674;-54
2024/04/25 05:54:20;;;;;;;14.97;11.43;;;5.30;99.90;;;;;;5468913;26;21727;-54
2024/04/25 05:56:48;;;;;;;16.40;11.60;;;5.30;99.90;;;;;;5461630;26;20610;-55
2024/04/25 05:59:20;;;;;;;14.07;10.90;;;5.30;99.90;;;;;;5426832;26;20289;-54
2024/04/25 06:01:49;;;;;;;13.00;11.03;;;5.40;99.90;;;;;;5480154;26;20277;-54
2024/04/25 06:04:17;;;;;;;14.93;12.13;;;5.50;99.90;;;;;;5474913;26;20310;-51
2024/04/25 06:06:46;;;;;;;17.63;13.73;;;5.60;99.90;;;;;;5491147;26;20340;-57
2024/04/25 06:09:14;;;;;;;16.93;13.00;;;5.60;99.90;;;;;;5466262;26;20250;-54
2024/04/25 06:11:43;;;;;;;17.13;13.50;;;5.70;99.90;;;;;;5458334;26;20231;-55
2024/04/25 06:14:11;;;;;;;18.67;12.53;;;5.70;99.90;;;;;;5461509;26;21121;-53
2024/04/25 06:16:42;;;;;;;16.33;13.17;;;5.70;99.90;;;;;;5439635;26;20285;-54
2024/04/25 06:19:11;;;;;;;16.07;12.27;;;5.80;99.90;;;;;;5465030;26;20366;-54
2024/04/25 06:21:39;;;;;;;16.23;13.10;;;5.80;99.90;;;;;;5492729;26;20797;-54
2024/04/25 06:24:09;;;;;;;17.80;13.97;;;5.90;99.90;;;;;;5475702;26;20326;-54
2024/04/25 06:26:37;;;;;;;19.13;14.43;;;5.90;99.90;;;;;;5439735;26;20435;-58
2024/04/25 06:29:05;;;;;;;21.20;15.20;;;5.80;99.90;;;;;;5479032;26;20229;-56
2024/04/25 06:31:34;;;;;;;19.90;14.80;;;5.80;99.90;;;;;;5449743;26;20246;-53
2024/04/25 06:34:09;;;;;;;22.67;15.43;;;5.90;99.90;;;;;;5474422;26;21166;-53
2024/04/25 06:36:38;;;;;;;17.70;14.90;;;6.00;99.90;;;;;;5480998;26;20226;-53
2024/04/25 06:39:08;;;;;;;22.40;16.03;;;6.00;99.90;;;;;;5463375;26;20261;-55
2024/04/25 06:41:37;;;;;;;22.63;15.93;;;6.10;99.90;;;;;;5466036;26;20234;-54
2024/04/25 06:44:07;;;;;;;18.17;13.87;;;6.20;99.90;;;;;;5472043;26;20245;-53
2024/04/25 06:46:35;;;;;;;19.03;14.87;;;6.20;99.90;;;;;;5488752;26;20233;-51
2024/04/25 06:49:06;;;;;;;18.57;13.83;;;6.30;99.90;;;;;;5419415;26;21847;-50
2024/04/25 06:51:35;;;;;;;19.77;13.63;;;6.30;99.90;;;;;;5483128;26;20759;-53
2024/04/25 06:54:03;;;;;;;18.60;13.87;;;6.30;99.90;;;;;;5472247;26;20238;-53
2024/04/25 06:56:32;;;;;;;18.10;13.67;;;6.30;99.90;;;;;;5486001;26;20791;-53
2024/04/25 06:59:00;;;;;;;19.07;13.90;;;6.30;99.90;;;;;;5456417;26;20234;-55
2024/04/25 07:01:29;;;;;;;17.50;13.13;;;6.40;99.90;;;;;;5494907;26;20226;-50
2024/04/25 07:03:57;;;;;;;20.73;14.60;;;6.50;99.90;;;;;;5419685;26;20370;-56
2024/04/25 07:06:28;;;;;;;17.07;12.87;;;6.50;99.90;;;;;;5486784;26;20227;-53
2024/04/25 07:09:03;;;;;;;16.97;12.43;;;6.50;99.90;;;;;;5474390;26;20238;-55
2024/04/25 07:11:32;;;;;;;19.33;13.77;;;6.50;99.90;;;;;;5484948;26;20580;-54
2024/04/25 07:14:00;;;;;;;17.80;13.37;;;6.60;99.90;;;;;;5465764;26;20231;-52
2024/04/25 07:16:29;;;;;;;17.80;13.30;;;6.60;99.90;;;;;;5481089;26;20231;-55
2024/04/25 07:18:58;;;;;;;17.87;13.30;;;6.80;99.90;;;;;;5439398;26;20306;-51
2024/04/25 07:21:29;;;;;;;19.00;13.30;;;6.80;99.90;;;;;;5449875;26;20231;-56
2024/04/25 07:23:58;;;;;;;18.13;12.87;;;6.80;99.90;;;;;;5490003;26;20343;-54
2024/04/25 07:26:26;;;;;;;19.80;13.70;;;6.80;99.90;;;;;;5488084;26;20347;-57
2024/04/25 07:28:56;;;;;;;18.40;12.90;;;6.80;99.90;;;;;;5456396;26;20235;-53
2024/04/25 07:31:24;;;;;;;16.57;13.07;;;7.00;99.90;;;;;;5489069;26;20281;-56
2024/04/25 07:33:53;;;;;;;16.23;12.07;;;7.00;99.90;;;;;;5433596;26;21906;-56
2024/04/25 07:36:22;;;;;;;18.80;13.83;;;7.00;99.90;;;;;;5451954;26;20827;-56
2024/04/25 07:38:53;;;;;;;18.07;13.47;;;7.00;99.90;;;;;;5488849;26;20320;-55
2024/04/25 07:41:22;;;;;;;18.00;13.30;;;7.00;99.90;;;;;;5481986;26;20362;-58
2024/04/25 07:43:50;;;;;;;17.17;13.10;;;7.00;99.90;;;;;;5463150;26;21233;-56
2024/04/25 07:46:19;;;;;;;18.43;12.77;;;7.00;99.90;;;;;;5485799;26;20804;-57
2024/04/25 07:48:47;;;;;;;16.27;13.23;;;7.00;99.90;;;;;;5474757;26;20237;-55
2024/04/25 07:51:16;;;;;;;14.40;12.10;;;7.00;99.90;;;;;;5437248;26;20292;-53
2024/04/25 07:53:45;;;;;;;16.60;12.30;;;7.10;99.90;;;;;;5467922;26;20233;-53
2024/04/25 07:56:16;;;;;;;13.77;11.53;;;7.20;99.90;;;;;;5490180;26;20234;-56
2024/04/25 07:58:44;;;;;;;16.10;12.17;;;7.30;99.90;;;;;;5473448;26;20235;-49
2024/04/25 08:01:16;;;;;;;15.73;11.83;;;7.50;99.90;;;;;;5469633;26;20235;-53
2024/04/25 08:03:45;;;;;;;15.17;11.60;;;7.60;99.90;;;;;;5471103;26;20280;-50
2024/04/25 08:06:14;;;;;;;18.30;13.13;;;7.80;99.90;;;;;;5442899;26;20293;-52
2024/04/25 08:08:42;;;;;;;18.07;13.00;;;7.70;99.90;;;;;;5472643;26;20230;-52
2024/04/25 08:11:11;;;;;;;14.83;11.63;;;7.80;99.90;;;;;;5490634;26;20230;-47
2024/04/25 08:13:42;;;;;;;14.90;12.17;;;7.80;99.90;;;;;;5469140;26;20230;-49
2024/04/25 08:16:11;;;;;;;16.70;12.23;;;7.90;99.90;;;;;;5464374;26;20226;-50
2024/04/25 08:18:39;;;;;;;17.67;12.70;;;8.10;99.90;;;;;;5480084;26;21067;-48
2024/04/25 08:21:08;;;;;;;15.20;12.27;;;8.20;99.90;;;;;;5439895;26;20284;-49
2024/04/25 08:23:37;;;;;;;17.17;11.70;;;8.40;99.90;;;;;;5469358;26;20300;-55
2024/04/25 08:26:06;;;;;;;14.20;10.43;;;8.60;99.90;;;;;;5484386;26;20272;-51
2024/04/25 08:28:34;;;;;;;12.37;10.20;;;8.70;99.90;;;;;;5470434;26;20229;-53
2024/04/25 08:31:06;;;;;;;12.13;10.27;;;8.60;99.90;;;;;;5455845;26;20280;-52
2024/04/25 08:33:34;;;;;;;13.17;11.00;;;8.60;99.90;;;;;;5474044;26;20306;-53
2024/04/25 08:36:04;;;;;;;13.63;11.07;;;8.50;99.90;;;;;;5453531;26;21243;-48
2024/04/25 08:38:34;;;;;;;13.93;11.47;;;8.50;99.90;;;;;;5468246;26;20612;-54
2024/04/25 08:41:03;;;;;;;15.60;11.80;;;8.40;99.90;;;;;;5495492;26;20276;-52
2024/04/25 08:43:32;;;;;;;12.50;10.70;;;8.30;99.90;;;;;;5463417;26;20235;-54
2024/04/25 08:46:02;;;;;;;14.40;11.43;;;8.20;99.90;;;;;;5469371;26;20277;-50
2024/04/25 08:48:35;;;;;;;13.47;10.97;;;8.20;99.90;;;;;;5465745;26;20238;-53
2024/04/25 08:51:04;;;;;;;11.63;9.17;;;8.10;99.90;;;;;;5439872;26;20353;-48
2024/04/25 08:53:33;;;;;;;11.30;9.00;;;8.10;99.90;;;;;;5484431;26;21036;-52
2024/04/25 08:56:03;;;;;;;13.57;8.90;;;8.00;99.90;;;;;;5478267;26;20229;-50
2024/04/25 08:58:31;;;;;;;8.63;7.30;;;7.90;99.90;;;;;;5472272;26;20256;-57
2024/04/25 09:01:01;;;;;;;7.10;6.40;;;7.80;99.90;;;;;;5468225;26;20245;-51
2024/04/25 09:03:30;;;;;;;8.53;7.20;;;7.80;99.90;;;;;;5476880;26;20243;-51
2024/04/25 09:06:01;;;;;;;10.40;7.27;;;7.80;99.90;;;;;;5485094;26;20269;-48
2024/04/25 09:08:32;;;;;;;7.10;4.70;;;7.90;99.90;;;;;;5442498;26;20597;-50
2024/04/25 09:11:01;;;;;;;5.57;5.03;;;8.00;99.90;;;;;;5450317;26;20231;-52
2024/04/25 09:13:29;;;;;;;5.17;4.57;;;8.10;99.90;;;;;;5473840;26;21099;-53
2024/04/25 09:16:02;;;;;;;5.20;4.70;;;8.20;99.90;;;;;;5475479;26;20226;-51
2024/04/25 09:18:31;;;;;;;5.37;4.80;;;8.50;99.90;;;;;;5466170;26;20444;-52
2024/04/25 09:21:02;;;;;;;8.77;4.83;;;8.60;99.90;;;;;;5486276;26;20284;-47
2024/04/25 09:23:31;;;;;;;5.43;4.93;;;8.80;99.90;;;;;;5433148;26;20328;-51
2024/04/25 09:25:59;;;;;;;6.43;5.83;;;9.00;99.90;;;;;;5451852;26;20284;-53
2024/04/25 09:28:29;;;;;;;5.20;4.70;;;9.20;99.90;;;;;;5482259;26;20229;-53
2024/04/25 09:30:57;;;;;;;4.80;4.40;;;9.40;99.90;;;;;;5485350;26;20234;-48
2024/04/25 09:33:26;;;;;;;4.73;4.33;;;9.60;99.90;;;;;;5478664;26;20251;-52
2024/04/25 09:35:54;;;;;;;5.47;4.67;;;9.70;99.90;;;;;;5488796;26;21066;-54
2024/04/25 09:38:26;;;;;;;4.27;3.87;;;9.70;99.90;;;;;;5434641;25;20241;-53
2024/04/25 09:40:57;;;;;;;3.80;3.00;;;9.50;99.90;;;;;;5459886;26;20285;-51
2024/04/25 09:43:27;;;;;;;2.87;2.60;;;9.40;99.90;;;;;;5486708;26;20294;-54
2024/04/25 09:46:00;;;;;;;3.13;2.60;;;9.40;99.90;;;;;;5481740;26;20269;-49
2024/04/25 09:48:34;;;;;;;3.40;3.10;;;9.50;99.90;;;;;;5477049;26;20239;-49
2024/04/25 09:51:11;;;;;;;2.60;2.40;;;9.70;99.90;;;;;;5492574;26;20282;-50
2024/04/25 09:53:50;;;;;;;3.50;3.20;;;9.70;99.90;;;;;;5425028;26;20257;-52
2024/04/25 09:56:24;;;;;;;4.30;3.60;;;9.80;99.90;;;;;;5469554;26;20242;-49
2024/04/25 09:58:55;;;;;;;3.97;3.67;;;9.90;99.90;;;;;;5475384;26;20324;-53
2024/04/25 10:01:25;;;;;;;4.30;3.90;;;9.90;99.90;;;;;;5485242;26;20607;-57
2024/04/25 10:03:53;;;;;;;4.50;4.10;;;9.90;99.90;;;;;;5469925;26;22019;-53
2024/04/25 10:06:22;;;;;;;3.83;3.53;;;9.80;99.90;;;;;;5478931;26;20235;-59
2024/04/25 10:08:57;;;;;;;4.47;3.37;;;9.70;99.90;;;;;;5428378;26;23671;-53
2024/04/25 10:11:25;;;;;;;3.50;3.20;;;9.70;99.90;;;;;;5477220;26;20276;-58
2024/04/25 10:13:54;;;;;;;3.37;3.03;;;9.60;99.90;;;;;;5476683;26;20235;-55
2024/04/25 10:16:24;;;;;;;3.10;2.80;;;9.50;99.90;;;;;;5484210;26;20231;-57
2024/04/25 10:18:54;;;;;;;4.13;3.83;;;9.50;99.90;;;;;;5481615;26;20225;-53
2024/04/25 10:21:23;;;;;;;4.20;3.73;;;9.50;99.90;;;;;;5459597;26;20858;-56
2024/04/25 10:24:08;;;;;;;4.00;3.60;;;9.50;99.90;;;;;;5482583;26;20316;-52
2024/04/25 10:26:37;;;;;;;3.87;3.57;;;9.50;99.90;;;;;;5464352;26;20492;-52
2024/04/25 10:29:06;;;;;;;4.23;3.30;;;9.40;99.90;;;;;;5483048;25;20245;-56
2024/04/25 10:31:36;;;;;;;4.57;3.40;;;9.40;99.90;;;;;;5492846;26;20231;-53
2024/04/25 10:34:04;;;;;;;4.57;3.27;;;9.50;99.90;;;;;;5472652;26;20227;-54
2024/04/25 10:36:34;;;;;;;3.83;3.53;;;9.60;99.90;;;;;;5457934;26;20268;-49
2024/04/25 10:39:05;;;;;;;3.77;3.20;;;9.60;99.90;;;;;;5482774;26;20322;-51
2024/04/25 10:41:35;;;;;;;3.77;3.37;;;9.60;99.90;;;;;;5446695;25;20377;-50
2024/04/25 10:44:03;;;;;;;3.83;3.40;;;9.70;99.90;;;;;;5466661;26;20273;-52
2024/04/25 10:46:32;;;;;;;4.47;3.77;;;9.90;99.90;;;;;;5479261;26;20241;-50
2024/04/25 10:49:01;;;;;;;4.07;3.67;;;9.90;99.90;;;;;;5469515;26;20977;-53
2024/04/25 10:51:30;;;;;;;4.43;3.90;;;10.00;99.90;;;;;;5475812;26;20414;-49
2024/04/25 10:53:58;;;;;;;4.77;4.20;;;10.10;99.90;;;;;;5483473;26;20265;-51
2024/04/25 10:56:29;;;;;;;4.53;4.13;;;9.90;99.90;;;;;;5439268;26;20640;-49
2024/04/25 10:58:59;;;;;;;4.00;3.70;;;9.70;99.90;;;;;;5478240;26;20280;-53
2024/04/25 11:01:28;;;;;;;4.33;3.93;;;9.70;99.90;;;;;;5479283;26;20261;-54
2024/04/25 11:03:57;;;;;;;4.97;3.90;;;9.90;99.90;;;;;;5462404;26;20545;-55
2024/04/25 11:06:27;;;;;;;2.40;2.20;;;9.80;99.90;;;;;;5460380;26;20250;-52
2024/04/25 11:08:56;;;;;;;2.97;2.37;;;9.80;99.90;;;;;;5485405;26;20281;-50
2024/04/25 11:11:25;;;;;;;3.17;2.40;;;9.90;99.90;;;;;;5441474;26;20250;-49
2024/04/25 11:13:56;;;;;;;3.07;2.60;;;10.10;99.90;;;;;;5471337;26;20298;-52
2024/04/25 11:16:24;;;;;;;3.10;2.80;;;10.10;99.90;;;;;;5468432;26;20273;-56
2024/04/25 11:18:54;;;;;;;2.83;2.63;;;10.20;99.90;;;;;;5485366;26;20238;-55
2024/04/25 11:21:24;;;;;;;3.37;2.73;;;10.30;99.90;;;;;;5484110;26;20278;-53
2024/04/25 11:23:52;;;;;;;2.43;2.23;;;10.30;99.90;;;;;;5476509;26;20343;-51
2024/04/25 11:26:21;;;;;;;3.17;2.87;;;10.00;99.90;;;;;;5476599;26;20323;-51
2024/04/25 11:28:50;;;;;;;3.17;2.97;;;9.90;99.90;;;;;;5415983;26;20890;-52
2024/04/25 11:31:21;;;;;;;3.67;3.37;;;9.80;99.90;;;;;;5468302;26;20278;-53
2024/04/25 11:33:49;;;;;;;3.17;2.93;;;9.70;99.90;;;;;;5488825;26;20322;-51
2024/04/25 11:36:25;;;;;;;3.27;3.00;;;9.70;99.90;;;;;;5478046;26;20223;-50
2024/04/25 11:38:55;;;;;;;4.33;3.20;;;9.80;99.90;;;;;;5484053;26;20280;-52
2024/04/25 11:41:23;;;;;;;3.00;2.73;;;9.90;99.90;;;;;;5482120;26;20298;-50
2024/04/25 11:43:52;;;;;;;2.80;2.60;;;10.00;99.90;;;;;;5434678;26;20245;-49
2024/04/25 11:46:23;;;;;;;2.60;2.40;;;9.90;99.90;;;;;;5471783;26;20273;-51
2024/04/25 11:48:56;;;;;;;2.10;2.00;;;9.90;99.90;;;;;;5506401;26;20755;-49
2024/04/25 11:51:24;;;;;;;2.37;1.90;;;9.90;99.90;;;;;;5471743;26;21118;-48
2024/04/25 11:53:53;;;;;;;2.40;1.57;;;10.00;99.90;;;;;;5489321;26;20234;-47
2024/04/25 11:56:21;;;;;;;1.20;1.10;;;10.00;99.90;;;;;;5466181;26;20445;-51
2024/04/25 11:58:50;;;;;;;1.37;1.00;;;10.10;99.90;;;;;;5441742;26;20579;-53
2024/04/25 12:01:18;;;;;;;1.20;1.10;;;10.00;99.90;;;;;;5455835;26;20230;-50
2024/04/25 12:03:49;;;;;;;1.90;0.70;;;9.90;99.90;;;;;;5479055;26;20387;-53
2024/04/25 12:06:19;;;;;;;0.70;0.70;;;9.90;99.90;;;;;;5469754;26;20318;-51
2024/04/25 12:08:47;;;;;;;0.90;0.70;;;9.80;99.90;;;;;;5485674;26;20227;-49
2024/04/25 12:11:16;;;;;;;1.07;0.80;;;9.90;99.90;;;;;;5459448;26;21029;-52
2024/04/25 12:13:46;;;;;;;13.23;1.30;;;10.00;99.90;;;;;;5435040;26;20278;-52
2024/04/25 12:16:15;;;;;;;1.20;1.20;;;10.00;99.90;;;;;;5472677;26;20270;-54
2024/04/25 12:18:44;;;;;;;0.90;0.90;;;9.80;99.90;;;;;;5489211;25;20819;-49
2024/04/25 12:21:15;;;;;;;1.10;1.00;;;9.70;99.90;;;;;;5487200;26;20261;-51
2024/04/25 12:23:43;;;;;;;1.50;1.40;;;9.60;99.90;;;;;;5490370;26;20253;-51
2024/04/25 12:26:12;;;;;;;2.10;1.03;;;9.50;99.90;;;;;;5455278;26;20231;-54
2024/04/25 12:28:40;;;;;;;1.20;0.90;;;9.60;99.90;;;;;;5445506;26;20249;-49
2024/04/25 12:31:09;;;;;;;0.73;0.73;;;9.50;99.90;;;;;;5492995;26;20230;-54
2024/04/25 12:33:39;;;;;;;1.03;0.73;;;9.50;99.90;;;;;;5467077;26;20230;-53
2024/04/25 12:36:09;;;;;;;1.10;1.00;;;9.60;99.90;;;;;;5487190;26;20273;-53
2024/04/25 12:38:40;;;;;;;1.90;0.77;;;9.40;99.90;;;;;;5476357;26;20285;-54
2024/04/25 12:41:08;;;;;;;1.50;1.07;;;9.40;99.90;;;;;;5464254;26;20248;-53
2024/04/25 12:43:37;;;;;;;0.80;0.80;;;9.50;99.90;;;;;;5445404;25;20292;-50
2024/04/25 12:46:05;;;;;;;3.77;0.80;;;9.40;99.90;;;;;;5483394;26;20278;-53
2024/04/25 12:48:34;;;;;;;0.60;0.60;;;9.30;99.90;;;;;;5473108;26;20245;-50
2024/04/25 12:51:02;;;;;;;1.27;0.80;;;9.20;99.90;;;;;;5492594;26;20250;-52
2024/04/25 12:53:31;;;;;;;0.77;0.73;;;9.20;99.90;;;;;;5468627;26;20272;-52
2024/04/25 12:56:02;;;;;;;0.50;0.50;;;9.40;99.90;;;;;;5459379;26;20238;-52
2024/04/25 12:58:33;;;;;;;0.87;0.87;;;9.50;99.90;;;;;;5483469;26;20305;-50
2024/04/25 13:01:01;;;;;;;0.80;0.80;;;9.50;99.90;;;;;;5440664;26;20293;-53
2024/04/25 13:03:30;;;;;;;1.10;0.83;;;9.40;99.90;;;;;;5472712;26;20320;-52
2024/04/25 13:05:58;;;;;;;1.00;1.00;;;9.40;99.90;;;;;;5451372;26;21058;-50